Time;durP1;ratioP1;P1;durP2;ratioP2;P2;SDS_P1;SDS_P2;PMS_P1;PMS_P2;Temp;Humidity;BMP_temperature;BMP_pressure;BME280_temperature;BME280_humidity;BME280_pressure;Samples;Min_cycle;Max_cycle;Signal;HPM_P1;HPM_P2
2022/12/20 00:01:35;;;;;;;;;;;11.00;99.90;;;;;;5066196;28;19928;-75
2022/12/20 00:04:04;;;;;;;;;;;11.00;99.90;;;;;;5067092;28;20001;-74
2022/12/20 00:06:31;;;;;;;;;;;11.00;99.90;;;;;;5063582;28;19924;-75
2022/12/20 00:08:59;;;;;;;;;;;10.90;99.90;;;;;;5064510;28;19932;-75
2022/12/20 00:11:27;;;;;;;;;;;10.90;99.90;;;;;;5064171;28;20619;-74
2022/12/20 00:13:54;;;;;;;;;;;10.90;99.90;;;;;;5064616;28;20075;-74
2022/12/20 00:16:22;;;;;;;;;;;10.80;99.90;;;;;;5064675;28;19925;-74
2022/12/20 00:18:50;;;;;;;;;;;10.80;99.90;;;;;;5065634;28;20375;-74
2022/12/20 00:21:17;;;;;;;;;;;10.80;99.90;;;;;;5066826;28;19932;-75
2022/12/20 00:23:44;;;;;;;;;;;10.80;99.90;;;;;;5067286;28;20023;-75
2022/12/20 00:26:11;;;;;;;;;;;10.80;99.90;;;;;;5065630;28;20022;-74
2022/12/20 00:28:40;;;;;;;;;;;10.70;99.90;;;;;;5068811;28;19932;-75
2022/12/20 00:31:08;;;;;;;;;;;10.70;99.90;;;;;;5066851;28;20377;-75
2022/12/20 00:33:36;;;;;;;;;;;10.70;99.90;;;;;;5067912;28;19948;-74
2022/12/20 00:36:03;;;;;;;;;;;10.70;99.90;;;;;;5067173;28;19935;-75
2022/12/20 00:38:30;;;;;;;;;;;10.70;99.90;;;;;;5066455;28;20387;-75
2022/12/20 00:41:01;;;;;;;;;;;10.60;99.90;;;;;;5067561;28;19928;-75
2022/12/20 00:43:30;;;;;;;;;;;10.50;99.90;;;;;;5067619;28;19924;-75
2022/12/20 00:45:59;;;;;;;;;;;10.50;99.90;;;;;;5067166;28;20024;-75
2022/12/20 00:48:26;;;;;;;;;;;10.50;99.90;;;;;;5065847;28;19929;-75
2022/12/20 00:50:58;;;;;;;;;;;10.40;99.90;;;;;;5068129;28;20654;-75
2022/12/20 00:53:24;;;;;;;;;;;10.40;99.90;;;;;;5064713;28;19929;-75
2022/12/20 00:55:51;;;;;;;;;;;10.40;99.90;;;;;;5066340;28;19933;-74
2022/12/20 00:58:18;;;;;;;;;;;10.50;99.90;;;;;;5066528;28;20027;-76
2022/12/20 01:00:44;;;;;;;;;;;10.40;99.90;;;;;;5069120;28;19935;-75
2022/12/20 01:03:13;;;;;;;;;;;10.40;99.90;;;;;;5068144;28;19967;-76
2022/12/20 01:05:39;;;;;;;;;;;10.40;99.90;;;;;;5065049;28;20042;-76
2022/12/20 01:08:07;;;;;;;;;;;10.40;99.90;;;;;;5067347;28;20391;-76
2022/12/20 01:10:34;;;;;;;;;;;10.40;99.90;;;;;;5067305;28;20378;-76
2022/12/20 01:13:00;;;;;;;;;;;10.50;99.90;;;;;;5067163;28;19932;-76
2022/12/20 01:15:27;;;;;;;;;;;10.60;99.90;;;;;;5067122;28;20394;-76
2022/12/20 01:17:54;;;;;;;;;;;10.70;99.90;;;;;;5068613;28;20007;-76
2022/12/20 01:20:22;;;;;;;;;;;10.70;99.90;;;;;;5067834;28;19932;-76
2022/12/20 01:22:49;;;;;;;;;;;10.80;99.90;;;;;;5066161;28;19934;-76
2022/12/20 01:25:16;;;;;;;;;;;10.80;99.90;;;;;;5067847;28;19934;-76
2022/12/20 01:27:43;;;;;;;;;;;10.90;99.90;;;;;;5064222;28;19951;-75
2022/12/20 01:30:10;;;;;;;;;;;10.90;99.90;;;;;;5066687;28;20363;-76
2022/12/20 01:32:37;;;;;;;;;;;10.90;99.90;;;;;;5066223;28;19929;-76
2022/12/20 01:35:04;;;;;;;;;;;10.90;99.90;;;;;;5066255;28;19933;-76
2022/12/20 01:37:32;;;;;;;;;;;10.90;99.90;;;;;;5065977;28;19929;-75
2022/12/20 01:39:59;;;;;;;;;;;10.90;99.90;;;;;;5065845;28;19928;-75
2022/12/20 01:42:26;;;;;;;;;;;10.90;99.90;;;;;;5066726;28;19928;-76
2022/12/20 01:44:55;;;;;;;;;;;10.80;99.90;;;;;;5066672;28;20022;-75
2022/12/20 01:47:22;;;;;;;;;;;10.80;99.90;;;;;;5065952;28;19928;-75
2022/12/20 01:49:51;;;;;;;;;;;10.90;99.90;;;;;;5068341;28;20029;-76
2022/12/20 01:52:19;;;;;;;;;;;10.90;99.90;;;;;;5067780;28;19981;-76
2022/12/20 01:54:50;;;;;;;;;;;10.90;99.90;;;;;;5066251;28;19939;-74
2022/12/20 01:57:18;;;;;;;;;;;10.90;99.90;;;;;;5066419;28;20326;-75
2022/12/20 01:59:45;;;;;;;;;;;11.00;99.90;;;;;;5066694;28;20047;-76
2022/12/20 02:02:12;;;;;;;;;;;10.90;99.90;;;;;;5065730;28;19932;-75
2022/12/20 02:04:40;;;;;;;;;;;10.90;99.90;;;;;;5065845;28;20301;-76
2022/12/20 02:07:08;;;;;;;;;;;11.00;99.90;;;;;;5065798;28;21433;-73
2022/12/20 02:09:36;;;;;;;;;;;10.90;99.90;;;;;;5068364;28;19932;-73
2022/12/20 02:12:08;;;;;;;;;;;10.90;99.90;;;;;;5065665;28;19932;-74
2022/12/20 02:14:50;;;;;;;;;;;10.90;99.90;;;;;;5064768;28;19983;-74
2022/12/20 02:17:21;;;;;;;;;;;10.90;99.90;;;;;;5066118;28;20022;-75
2022/12/20 02:19:57;;;;;;;;;;;11.00;99.90;;;;;;5067739;28;19951;-73
2022/12/20 02:22:26;;;;;;;;;;;11.00;99.90;;;;;;5063521;28;19928;-74
2022/12/20 02:25:02;;;;;;;;;;;11.10;99.90;;;;;;5065598;28;19932;-74
2022/12/20 02:27:41;;;;;;;;;;;11.10;99.90;;;;;;5064435;28;19935;-74
2022/12/20 02:30:19;;;;;;;;;;;11.10;99.90;;;;;;5067937;28;19942;-74
2022/12/20 02:32:52;;;;;;;;;;;11.10;99.90;;;;;;5065435;28;19951;-76
2022/12/20 02:35:21;;;;;;;;;;;11.10;99.90;;;;;;5069412;28;19924;-75
2022/12/20 02:37:49;;;;;;;;;;;11.20;99.90;;;;;;5065847;28;19928;-76
2022/12/20 02:40:17;;;;;;;;;;;11.20;99.90;;;;;;5064211;28;19928;-76
2022/12/20 02:42:44;;;;;;;;;;;11.20;99.90;;;;;;5063096;28;19932;-76
2022/12/20 02:45:16;;;;;;;;;;;11.20;99.90;;;;;;5063820;28;19934;-74
2022/12/20 02:47:47;;;;;;;;;;;11.20;99.90;;;;;;5064377;28;20648;-75
2022/12/20 02:50:14;;;;;;;;;;;11.20;99.90;;;;;;5063541;28;19932;-75
2022/12/20 02:52:41;;;;;;;;;;;11.20;99.90;;;;;;5064211;28;19932;-72
2022/12/20 02:55:08;;;;;;;;;;;11.20;99.90;;;;;;5065492;28;20394;-74
2022/12/20 02:57:39;;;;;;;;;;;11.30;99.90;;;;;;5064900;28;19928;-75
2022/12/20 03:00:08;;;;;;;;;;;11.30;99.90;;;;;;5067536;28;20055;-75
2022/12/20 03:05:17;;;;;;;;;;;11.40;99.90;;;;;;5063678;28;19947;-75
2022/12/20 03:07:44;;;;;;;;;;;11.40;99.90;;;;;;5063757;28;20413;-75
2022/12/20 03:10:11;;;;;;;;;;;11.30;99.90;;;;;;5063894;28;19924;-75
2022/12/20 03:12:37;;;;;;;;;;;11.30;99.90;;;;;;5065540;28;19950;-76
2022/12/20 03:15:04;;;;;;;;;;;11.30;99.90;;;;;;5063841;28;19935;-75
2022/12/20 03:17:31;;;;;;;;;;;11.20;99.90;;;;;;5063487;28;19928;-75
2022/12/20 03:19:58;;;;;;;;;;;11.30;99.90;;;;;;5066923;28;19971;-76
2022/12/20 03:22:26;;;;;;;;;;;11.30;99.90;;;;;;5064449;28;19940;-75
2022/12/20 03:24:53;;;;;;;;;;;11.30;99.90;;;;;;5064721;28;20030;-75
2022/12/20 03:27:19;;;;;;;;;;;11.30;99.90;;;;;;5062615;28;19932;-76
2022/12/20 03:29:46;;;;;;;;;;;11.30;99.90;;;;;;5063946;28;20311;-76
2022/12/20 03:32:13;;;;;;;;;;;11.30;99.90;;;;;;5064467;28;20023;-75
2022/12/20 03:34:39;;;;;;;;;;;11.40;99.90;;;;;;5063001;28;19938;-75
2022/12/20 03:37:06;;;;;;;;;;;11.30;99.90;;;;;;5064300;28;20019;-76
2022/12/20 03:39:34;;;;;;;;;;;11.40;99.90;;;;;;5065347;28;20027;-77
2022/12/20 03:42:01;;;;;;;;;;;11.40;99.90;;;;;;5063341;28;20462;-76
2022/12/20 03:44:27;;;;;;;;;;;11.40;99.90;;;;;;5072993;28;20811;-76
2022/12/20 03:46:54;;;;;;;;;;;11.40;99.90;;;;;;5064490;28;19992;-76
2022/12/20 03:49:21;;;;;;;;;;;11.40;99.90;;;;;;5064566;28;20211;-76
2022/12/20 03:51:47;;;;;;;;;;;11.40;99.90;;;;;;5066063;28;19929;-76
2022/12/20 03:54:14;;;;;;;;;;;11.40;99.90;;;;;;5068705;28;19932;-76
2022/12/20 03:56:42;;;;;;;;;;;11.40;99.90;;;;;;5067321;28;19932;-76
2022/12/20 03:59:09;;;;;;;;;;;11.40;99.90;;;;;;5069244;28;19932;-77
2022/12/20 04:01:37;;;;;;;;;;;11.40;99.90;;;;;;5068596;28;19939;-77
2022/12/20 04:04:04;;;;;;;;;;;11.30;99.90;;;;;;5066829;28;20019;-77
2022/12/20 04:06:31;;;;;;;;;;;11.30;99.90;;;;;;5067003;28;20399;-77
2022/12/20 04:08:57;;;;;;;;;;;11.30;99.90;;;;;;5070023;28;19973;-74
2022/12/20 04:11:24;;;;;;;;;;;11.20;99.90;;;;;;5067977;28;19928;-75
2022/12/20 04:13:53;;;;;;;;;;;11.20;99.90;;;;;;5069296;28;19932;-74
2022/12/20 04:16:21;;;;;;;;;;;11.20;99.90;;;;;;5065711;28;20020;-76
2022/12/20 04:18:48;;;;;;;;;;;11.20;99.90;;;;;;5066788;28;20371;-75
2022/12/20 04:21:15;;;;;;;;;;;11.20;99.90;;;;;;5067182;28;20019;-75
2022/12/20 04:23:42;;;;;;;;;;;11.20;99.90;;;;;;5068596;28;19928;-75
2022/12/20 04:26:09;;;;;;;;;;;11.20;99.90;;;;;;5069241;28;20011;-75
2022/12/20 04:28:36;;;;;;;;;;;11.20;99.90;;;;;;5070169;28;19932;-76
2022/12/20 04:31:04;;;;;;;;;;;11.10;99.90;;;;;;5069096;28;20410;-76
2022/12/20 04:33:31;;;;;;;;;;;11.20;99.90;;;;;;5073195;28;20310;-75
2022/12/20 04:35:58;;;;;;;;;;;11.10;99.90;;;;;;5069202;28;19932;-74
2022/12/20 04:38:25;;;;;;;;;;;11.20;99.90;;;;;;5068372;28;19932;-74
2022/12/20 04:40:52;;;;;;;;;;;11.20;99.90;;;;;;5067279;28;19932;-75
2022/12/20 04:43:19;;;;;;;;;;;11.20;99.90;;;;;;5065706;28;20034;-74
2022/12/20 04:45:47;;;;;;;;;;;11.30;99.90;;;;;;5066512;28;19939;-75
2022/12/20 04:48:16;;;;;;;;;;;11.30;99.90;;;;;;5066788;28;19986;-75
2022/12/20 04:50:42;;;;;;;;;;;11.40;99.90;;;;;;5066907;28;19928;-75
2022/12/20 04:55:55;;;;;;;;;;;11.40;99.90;;;;;;5066802;28;19935;-74
2022/12/20 04:58:21;;;;;;;;;;;11.50;99.90;;;;;;5066103;28;20314;-75
2022/12/20 05:00:48;;;;;;;;;;;11.50;99.90;;;;;;5065916;28;19932;-75
2022/12/20 05:03:16;;;;;;;;;;;11.40;99.90;;;;;;5067218;28;19938;-75
2022/12/20 05:05:43;;;;;;;;;;;11.40;99.90;;;;;;5066938;28;20725;-73
2022/12/20 05:08:10;;;;;;;;;;;11.40;99.90;;;;;;5067795;28;20408;-75
2022/12/20 05:10:36;;;;;;;;;;;11.30;99.90;;;;;;5067626;28;22632;-75
2022/12/20 05:13:04;;;;;;;;;;;11.30;99.90;;;;;;5066341;28;20003;-75
2022/12/20 05:15:30;;;;;;;;;;;11.30;99.90;;;;;;5068908;28;19928;-75
2022/12/20 05:17:58;;;;;;;;;;;11.30;99.90;;;;;;5067716;28;19983;-74
2022/12/20 05:20:26;;;;;;;;;;;11.20;99.90;;;;;;5068743;28;20006;-74
2022/12/20 05:28:30;;;;;;;;;;;11.30;99.90;;;;;;5041922;28;19924;-75
2022/12/20 05:30:57;;;;;;;;;;;11.20;99.90;;;;;;5069474;28;20032;-75
2022/12/20 05:33:24;;;;;;;;;;;11.20;99.90;;;;;;5069689;28;19932;-75
2022/12/20 05:35:52;;;;;;;;;;;11.10;99.90;;;;;;5065637;28;19932;-75
2022/12/20 05:38:19;;;;;;;;;;;11.20;99.90;;;;;;5066382;28;20410;-76
2022/12/20 05:40:47;;;;;;;;;;;11.10;99.90;;;;;;5069373;28;19928;-76
2022/12/20 05:43:14;;;;;;;;;;;11.10;99.90;;;;;;5068410;28;20574;-76
2022/12/20 05:45:44;;;;;;;;;;;11.10;99.90;;;;;;5066827;28;19932;-75
2022/12/20 05:48:11;;;;;;;;;;;11.10;99.90;;;;;;5066757;28;19933;-74
2022/12/20 05:50:38;;;;;;;;;;;11.20;99.90;;;;;;5068562;28;19928;-75
2022/12/20 05:53:06;;;;;;;;;;;11.20;99.90;;;;;;5068667;28;19935;-76
2022/12/20 05:55:32;;;;;;;;;;;11.20;99.90;;;;;;5067819;28;19932;-76
2022/12/20 05:57:59;;;;;;;;;;;11.10;99.90;;;;;;5067628;28;20011;-75
2022/12/20 06:00:26;;;;;;;;;;;11.20;99.90;;;;;;5065658;28;19985;-73
2022/12/20 06:02:52;;;;;;;;;;;11.10;99.90;;;;;;5066396;28;19933;-76
2022/12/20 06:05:19;;;;;;;;;;;11.20;99.90;;;;;;5067177;28;19928;-76
2022/12/20 06:07:46;;;;;;;;;;;11.10;99.90;;;;;;5067316;28;20345;-76
2022/12/20 06:10:14;;;;;;;;;;;11.20;99.90;;;;;;5069325;28;20026;-75
2022/12/20 06:12:41;;;;;;;;;;;11.20;99.90;;;;;;5066662;28;19932;-76
2022/12/20 06:15:09;;;;;;;;;;;11.30;99.90;;;;;;5065565;28;20411;-75
2022/12/20 06:17:36;;;;;;;;;;;11.30;99.90;;;;;;5066917;28;19940;-75
2022/12/20 06:20:03;;;;;;;;;;;11.30;99.90;;;;;;5075432;28;19932;-75
2022/12/20 06:22:30;;;;;;;;;;;11.30;99.90;;;;;;5111809;28;19924;-75
2022/12/20 06:24:57;;;;;;;;;;;11.40;99.90;;;;;;5112745;28;20399;-75
2022/12/20 06:27:25;;;;;;;;;;;11.40;99.90;;;;;;5076984;28;19956;-75
2022/12/20 06:29:53;;;;;;;;;;;11.40;99.90;;;;;;5073129;28;20376;-76
2022/12/20 06:32:20;;;;;;;;;;;11.40;99.90;;;;;;5089106;28;20378;-76
2022/12/20 06:34:48;;;;;;;;;;;11.40;99.90;;;;;;5084240;28;19971;-76
2022/12/20 06:37:15;;;;;;;;;;;11.50;99.90;;;;;;5067638;28;20410;-77
2022/12/20 06:39:42;;;;;;;;;;;11.50;99.90;;;;;;5064422;28;20466;-76
2022/12/20 06:42:09;;;;;;;;;;;11.50;99.90;;;;;;5067872;28;22007;-77
2022/12/20 06:44:37;;;;;;;;;;;11.60;99.90;;;;;;5070559;28;19932;-76
2022/12/20 06:47:04;;;;;;;;;;;11.60;99.90;;;;;;5064065;28;19937;-75
2022/12/20 06:49:30;;;;;;;;;;;11.60;99.90;;;;;;5066338;28;19936;-76
2022/12/20 06:51:57;;;;;;;;;;;11.60;99.90;;;;;;5066426;28;19991;-76
2022/12/20 06:54:24;;;;;;;;;;;11.60;99.90;;;;;;5067017;28;20023;-77
2022/12/20 06:56:51;;;;;;;;;;;11.60;99.90;;;;;;5065609;28;20022;-76
2022/12/20 06:59:17;;;;;;;;;;;11.70;99.90;;;;;;5064992;28;19938;-75
2022/12/20 07:01:45;;;;;;;;;;;11.60;99.90;;;;;;5067890;28;20118;-76
2022/12/20 07:04:12;;;;;;;;;;;11.60;99.90;;;;;;5068007;28;19931;-75
2022/12/20 07:06:39;;;;;;;;;;;11.50;99.90;;;;;;5067105;28;20025;-75
2022/12/20 07:09:05;;;;;;;;;;;11.40;99.90;;;;;;5067416;28;19939;-75
2022/12/20 07:11:32;;;;;;;;;;;11.40;99.90;;;;;;5064953;28;20031;-76
2022/12/20 07:13:59;;;;;;;;;;;11.40;99.90;;;;;;5067663;28;19928;-75
2022/12/20 07:16:26;;;;;;;;;;;11.40;99.90;;;;;;5065369;28;19934;-75
2022/12/20 07:18:54;;;;;;;;;;;11.30;99.90;;;;;;5065050;28;19928;-77
2022/12/20 07:21:21;;;;;;;;;;;11.20;99.90;;;;;;5065206;28;20909;-75
2022/12/20 07:23:48;;;;;;;;;;;11.10;99.90;;;;;;5065068;28;20042;-74
2022/12/20 07:26:15;;;;;;;;;;;11.00;99.90;;;;;;5060604;28;19936;-73
2022/12/20 07:28:42;;;;;;;;;;;10.90;99.90;;;;;;5063533;28;20566;-76
2022/12/20 07:31:09;;;;;;;;;;;10.90;99.90;;;;;;5064599;28;19960;-76
2022/12/20 07:33:36;;;;;;;;;;;10.70;99.90;;;;;;5069059;28;22453;-76
2022/12/20 07:36:04;;;;;;;;;;;10.70;99.90;;;;;;5062561;28;20033;-75
2022/12/20 07:38:31;;;;;;;;;;;10.60;99.90;;;;;;5065298;28;20318;-75
2022/12/20 07:40:58;;;;;;;;;;;10.50;99.90;;;;;;5063366;28;20318;-76
2022/12/20 07:43:25;;;;;;;;;;;10.50;99.90;;;;;;5065745;28;20015;-75
2022/12/20 07:45:53;;;;;;;;;;;10.40;99.90;;;;;;5061300;28;20044;-76
2022/12/20 07:48:20;;;;;;;;;;;10.40;99.90;;;;;;5063389;28;19932;-74
2022/12/20 07:50:47;;;;;;;;;;;10.30;99.90;;;;;;5062193;28;19935;-77
2022/12/20 07:53:16;;;;;;;;;;;10.30;99.90;;;;;;5063538;28;20342;-76
2022/12/20 07:55:43;;;;;;;;;;;10.20;99.90;;;;;;5064120;28;20363;-74
2022/12/20 07:58:11;;;;;;;;;;;10.20;99.90;;;;;;5064780;28;20019;-74
2022/12/20 08:00:38;;;;;;;;;;;10.20;99.90;;;;;;5065362;28;19928;-76
2022/12/20 08:03:06;;;;;;;;;;;10.20;99.90;;;;;;5066036;28;19991;-75
2022/12/20 08:05:33;;;;;;;;;;;10.10;99.90;;;;;;5063031;28;20019;-76
2022/12/20 08:10:32;;;;;;;;;;;10.10;99.90;;;;;;5091096;22;20050;-75
2022/12/20 08:12:59;;;;;;;;;;;10.10;99.90;;;;;;5088710;28;19927;-76
2022/12/20 08:15:26;;;;;;;;;;;10.10;99.90;;;;;;5093561;28;19924;-75
2022/12/20 08:17:53;;;;;;;;;;;10.10;99.90;;;;;;5091523;28;20285;-76
2022/12/20 08:20:20;;;;;;;;;;;10.10;99.90;;;;;;5090531;28;19942;-75
2022/12/20 08:22:46;;;;;;;;;;;10.10;99.90;;;;;;5091391;28;19951;-75
2022/12/20 08:25:13;;;;;;;;;;;10.10;99.90;;;;;;5091044;28;20051;-76
2022/12/20 08:27:41;;;;;;;;;;;10.00;99.90;;;;;;5090035;28;19932;-76
2022/12/20 08:30:09;;;;;;;;;;;10.10;99.90;;;;;;5090620;28;20328;-75
2022/12/20 08:32:36;;;;;;;;;;;10.10;99.90;;;;;;5086703;28;19928;-76
2022/12/20 08:35:03;;;;;;;;;;;10.10;99.90;;;;;;5086888;28;19932;-75
2022/12/20 08:37:30;;;;;;;;;;;10.20;99.90;;;;;;5087896;28;19987;-77
2022/12/20 08:39:56;;;;;;;;;;;10.20;99.90;;;;;;5086897;28;19967;-75
2022/12/20 08:42:23;;;;;;;;;;;10.20;99.90;;;;;;5087502;28;19957;-75
2022/12/20 08:44:51;;;;;;;;;;;10.30;99.90;;;;;;5085979;28;19938;-74
2022/12/20 08:47:18;;;;;;;;;;;10.20;99.90;;;;;;5087983;28;19931;-75
2022/12/20 08:49:45;;;;;;;;;;;10.30;99.90;;;;;;5091902;28;20275;-76
2022/12/20 08:52:11;;;;;;;;;;;10.20;99.90;;;;;;5091832;28;20458;-74
2022/12/20 08:54:38;;;;;;;;;;;10.30;99.90;;;;;;5089959;28;19927;-74
2022/12/20 08:57:05;;;;;;;;;;;10.30;99.90;;;;;;5092564;28;19931;-75
2022/12/20 08:59:31;;;;;;;;;;;10.40;99.90;;;;;;5089911;28;19932;-74
2022/12/20 09:01:59;;;;;;;;;;;10.40;99.90;;;;;;5088881;28;19934;-74
2022/12/20 09:04:26;;;;;;;;;;;10.50;99.90;;;;;;5092463;28;19932;-74
2022/12/20 09:06:53;;;;;;;;;;;10.50;99.90;;;;;;5090155;27;19952;-75
2022/12/20 09:09:19;;;;;;;;;;;10.50;99.90;;;;;;5076847;28;19927;-75
2022/12/20 09:11:46;;;;;;;;;;;10.40;99.90;;;;;;5090275;28;20421;-76
2022/12/20 09:14:13;;;;;;;;;;;10.40;99.90;;;;;;5089390;28;19939;-74
2022/12/20 09:16:39;;;;;;;;;;;10.30;99.90;;;;;;5092305;28;20357;-75
2022/12/20 09:19:08;;;;;;;;;;;10.10;99.90;;;;;;5090689;28;19972;-74
2022/12/20 09:21:35;;;;;;;;;;;10.10;99.90;;;;;;5091682;28;21125;-75
2022/12/20 09:24:01;;;;;;;;;;;10.10;99.90;;;;;;5090658;28;20151;-76
2022/12/20 09:26:29;;;;;;;;;;;10.00;99.90;;;;;;5089001;28;19932;-71
2022/12/20 09:28:56;;;;;;;;;;;10.00;99.90;;;;;;5090022;28;20235;-70
2022/12/20 09:31:23;;;;;;;;;;;10.00;99.90;;;;;;5092899;28;19970;-70
2022/12/20 09:33:50;;;;;;;;;;;10.00;99.90;;;;;;5095253;28;19927;-70
2022/12/20 09:36:19;;;;;;;;;;;10.00;99.90;;;;;;5093591;28;20445;-70
2022/12/20 09:38:47;;;;;;;;;;;10.00;99.90;;;;;;5090732;28;20057;-73
2022/12/20 09:41:21;;;;;;;;;;;10.00;99.90;;;;;;5090889;28;20382;-74
2022/12/20 09:43:48;;;;;;;;;;;10.10;99.90;;;;;;5090553;28;19932;-74
2022/12/20 09:46:15;;;;;;;;;;;10.10;99.90;;;;;;5091934;28;20764;-74
2022/12/20 09:48:42;;;;;;;;;;;10.10;99.90;;;;;;5088360;28;19924;-74
2022/12/20 09:51:16;;;;;;;;;;;10.20;99.90;;;;;;5088172;28;19938;-69
2022/12/20 09:53:51;;;;;;;;;;;10.20;99.90;;;;;;5091249;28;19996;-75
2022/12/20 09:56:24;;;;;;;;;;;10.20;99.90;;;;;;5091731;28;19932;-74
2022/12/20 09:58:58;;;;;;;;;;;10.30;99.90;;;;;;5087310;28;19932;-76
2022/12/20 10:01:25;;;;;;;;;;;10.30;99.90;;;;;;5092033;28;19928;-75
2022/12/20 10:03:52;;;;;;;;;;;10.30;99.90;;;;;;5091165;28;19993;-74
2022/12/20 10:06:22;;;;;;;;;;;10.30;99.90;;;;;;5092098;28;20053;-74
2022/12/20 10:08:55;;;;;;;;;;;10.30;99.90;;;;;;5090198;28;19995;-74
2022/12/20 10:11:31;;;;;;;;;;;10.30;99.90;;;;;;5092146;28;19931;-75
2022/12/20 10:14:01;;;;;;;;;;;10.30;99.90;;;;;;5089529;28;19927;-75
2022/12/20 10:16:37;;;;;;;;;;;10.30;99.90;;;;;;5088247;28;19932;-75
2022/12/20 10:19:13;;;;;;;;;;;10.30;99.90;;;;;;5087297;28;19928;-75
2022/12/20 10:21:44;;;;;;;;;;;10.30;99.90;;;;;;5085604;28;19928;-74
2022/12/20 10:24:15;;;;;;;;;;;10.30;99.90;;;;;;5086549;28;19946;-74
2022/12/20 10:26:42;;;;;;;;;;;10.30;99.90;;;;;;5089771;28;19927;-73
2022/12/20 10:29:09;;;;;;;;;;;10.40;99.90;;;;;;5088987;28;19928;-74
2022/12/20 10:31:35;;;;;;;;;;;10.40;99.90;;;;;;5091762;28;19976;-74
2022/12/20 10:34:02;;;;;;;;;;;10.40;99.90;;;;;;5093050;28;19935;-73
2022/12/20 10:36:31;;;;;;;;;;;10.40;99.90;;;;;;5090160;28;20036;-76
2022/12/20 10:38:58;;;;;;;;;;;10.50;99.90;;;;;;5087715;28;19932;-74
2022/12/20 10:41:28;;;;;;;;;;;10.50;99.90;;;;;;5085621;28;19932;-74
2022/12/20 10:43:58;;;;;;;;;;;10.50;99.90;;;;;;5082883;28;20376;-73
2022/12/20 10:46:34;;;;;;;;;;;10.60;99.90;;;;;;5083714;28;19931;-73
2022/12/20 10:49:20;;;;;;;;;;;10.60;99.90;;;;;;5085501;28;20318;-73
2022/12/20 10:51:51;;;;;;;;;;;10.60;99.90;;;;;;5089210;28;19938;-72
2022/12/20 10:54:21;;;;;;;;;;;10.60;99.90;;;;;;5089392;28;20026;-68
2022/12/20 10:56:54;;;;;;;;;;;10.60;99.90;;;;;;5086840;28;19932;-72
2022/12/20 10:59:27;;;;;;;;;;;10.60;99.90;;;;;;5088581;28;19947;-74
2022/12/20 11:01:54;;;;;;;;;;;10.60;99.90;;;;;;5091197;28;20023;-73
2022/12/20 11:04:25;;;;;;;;;;;10.60;99.90;;;;;;5090043;28;19940;-73
2022/12/20 11:06:52;;;;;;;;;;;10.60;99.90;;;;;;5083193;28;20038;-74
2022/12/20 11:09:27;;;;;;;;;;;10.60;99.90;;;;;;5082506;28;20031;-76
2022/12/20 11:11:58;;;;;;;;;;;10.60;99.90;;;;;;5083853;28;20008;-74
2022/12/20 11:14:25;;;;;;;;;;;10.50;99.90;;;;;;5091553;28;19932;-75
2022/12/20 11:16:53;;;;;;;;;;;10.60;99.90;;;;;;5092524;28;20593;-75
2022/12/20 11:19:47;;;;;;;;;;;10.60;99.90;;;;;;5089987;28;19928;-76
2022/12/20 11:22:18;;;;;;;;;;;10.50;99.90;;;;;;5063246;28;19928;-72
2022/12/20 11:24:47;;;;;;;;;;;10.40;99.90;;;;;;5091903;28;20088;-76
2022/12/20 11:27:20;;;;;;;;;;;10.40;99.90;;;;;;5085593;28;19949;-76
2022/12/20 11:30:05;;;;;;;;;;;10.40;99.90;;;;;;5090688;28;19939;-75
2022/12/20 11:32:38;;;;;;;;;;;10.40;99.90;;;;;;5091361;28;19928;-73
2022/12/20 11:35:10;;;;;;;;;;;10.40;99.90;;;;;;5088386;28;20015;-72
2022/12/20 11:37:39;;;;;;;;;;;10.30;99.90;;;;;;5088909;28;19924;-73
2022/12/20 11:40:11;;;;;;;;;;;10.30;99.90;;;;;;5088530;28;20011;-74
2022/12/20 11:42:50;;;;;;;;;;;10.30;99.90;;;;;;5086652;28;20379;-74
2022/12/20 11:45:21;;;;;;;;;;;10.30;99.90;;;;;;5087595;28;20279;-74
2022/12/20 11:48:02;;;;;;;;;;;10.30;99.90;;;;;;5089158;28;19927;-74
2022/12/20 11:50:50;;;;;;;;;;;10.30;99.90;;;;;;5089004;28;20087;-71
2022/12/20 11:53:20;;;;;;;;;;;10.30;99.90;;;;;;5083059;28;20792;-71
2022/12/20 11:55:49;;;;;;;;;;;10.30;99.90;;;;;;5088793;28;19932;-70
2022/12/20 11:58:19;;;;;;;;;;;10.30;99.90;;;;;;5088300;28;19931;-71
2022/12/20 12:00:48;;;;;;;;;;;10.30;99.90;;;;;;5088132;28;19927;-72
2022/12/20 12:03:18;;;;;;;;;;;10.20;99.90;;;;;;5086738;28;19928;-74
2022/12/20 12:05:47;;;;;;;;;;;10.30;99.90;;;;;;5089859;28;19928;-74
2022/12/20 12:08:16;;;;;;;;;;;10.30;99.90;;;;;;5088327;28;19935;-74
2022/12/20 12:10:45;;;;;;;;;;;10.30;99.90;;;;;;5094104;28;19943;-73
2022/12/20 12:13:16;;;;;;;;;;;10.30;99.90;;;;;;5094819;28;19923;-73
2022/12/20 12:15:48;;;;;;;;;;;10.30;99.90;;;;;;5098236;27;19934;-73
2022/12/20 12:18:18;;;;;;;;;;;10.30;99.90;;;;;;5091878;28;19928;-74
2022/12/20 12:20:47;;;;;;;;;;;10.30;99.90;;;;;;5090493;28;20022;-73
2022/12/20 12:23:17;;;;;;;;;;;10.30;99.90;;;;;;5095656;27;19934;-74
2022/12/20 12:25:44;;;;;;;;;;;10.30;99.90;;;;;;5095333;28;20394;-75
2022/12/20 12:28:12;;;;;;;;;;;10.40;99.90;;;;;;5093061;28;19931;-74
2022/12/20 12:30:40;;;;;;;;;;;10.40;99.90;;;;;;5095689;28;20392;-73
2022/12/20 12:33:11;;;;;;;;;;;10.40;99.90;;;;;;5093185;28;19924;-74
2022/12/20 12:35:48;;;;;;;;;;;10.30;99.90;;;;;;5091947;28;20294;-75
2022/12/20 12:38:19;;;;;;;;;;;10.20;99.90;;;;;;5093684;28;19932;-75
2022/12/20 12:41:04;;;;;;;;;;;10.20;99.90;;;;;;5096133;28;19955;-76
2022/12/20 12:43:48;;;;;;;;;;;10.20;99.90;;;;;;5095241;28;19963;-77
2022/12/20 12:46:16;;;;;;;;;;;10.20;99.90;;;;;;5092959;28;19934;-73
2022/12/20 12:48:47;;;;;;;;;;;10.20;99.90;;;;;;5093183;28;19934;-75
2022/12/20 12:51:15;;;;;;;;;;;10.20;99.90;;;;;;5093104;28;20297;-75
2022/12/20 12:53:43;;;;;;;;;;;10.20;99.90;;;;;;5093171;28;20035;-74
2022/12/20 12:56:29;;;;;;;;;;;10.20;99.90;;;;;;5095453;28;20532;-74
2022/12/20 12:59:09;;;;;;;;;;;10.10;99.90;;;;;;5094511;28;20361;-74
2022/12/20 13:01:47;;;;;;;;;;;10.20;99.90;;;;;;5094012;28;19943;-74
2022/12/20 13:04:23;;;;;;;;;;;10.20;99.90;;;;;;5093051;28;20382;-75
2022/12/20 13:07:01;;;;;;;;;;;10.10;99.90;;;;;;5092831;28;19935;-74
2022/12/20 13:09:43;;;;;;;;;;;10.20;99.90;;;;;;5092661;28;19931;-74
2022/12/20 13:12:28;;;;;;;;;;;10.10;99.90;;;;;;5094101;28;19930;-74
2022/12/20 13:14:55;;;;;;;;;;;10.10;99.90;;;;;;5094472;28;22678;-74
2022/12/20 13:17:45;;;;;;;;;;;10.10;99.90;;;;;;5099551;28;19936;-72
2022/12/20 13:20:17;;;;;;;;;;;10.10;99.90;;;;;;5077720;28;20018;-74
2022/12/20 13:22:59;;;;;;;;;;;10.10;99.90;;;;;;5098368;28;19938;-72
2022/12/20 13:25:28;;;;;;;;;;;10.10;99.90;;;;;;5092892;28;20535;-72
2022/12/20 13:28:15;;;;;;;;;;;10.10;99.90;;;;;;5094818;28;19959;-73
2022/12/20 13:30:42;;;;;;;;;;;10.10;99.90;;;;;;5093665;28;20024;-72
2022/12/20 13:33:21;;;;;;;;;;;10.10;99.90;;;;;;5093296;28;19927;-72
2022/12/20 13:35:57;;;;;;;;;;;10.10;99.90;;;;;;5093362;28;19928;-73
2022/12/20 13:38:47;;;;;;;;;;;10.10;99.90;;;;;;5092701;28;19932;-72
2022/12/20 13:41:20;;;;;;;;;;;10.10;99.90;;;;;;5073628;27;20442;-73
2022/12/20 13:43:47;;;;;;;;;;;10.10;99.90;;;;;;5091732;28;19975;-72
2022/12/20 13:46:18;;;;;;;;;;;10.10;99.90;;;;;;5088860;28;19928;-73
2022/12/20 13:48:49;;;;;;;;;;;10.10;99.90;;;;;;5092114;28;20010;-70
2022/12/20 13:51:18;;;;;;;;;;;10.10;99.90;;;;;;5090461;28;19938;-69
2022/12/20 13:53:49;;;;;;;;;;;10.00;99.90;;;;;;5088587;28;20073;-73
2022/12/20 13:56:27;;;;;;;;;;;10.10;99.90;;;;;;5088076;28;20018;-75
2022/12/20 13:58:55;;;;;;;;;;;10.10;99.90;;;;;;5081721;28;19928;-75
2022/12/20 14:01:23;;;;;;;;;;;10.10;99.90;;;;;;5084533;28;20338;-74
2022/12/20 14:03:50;;;;;;;;;;;10.10;99.90;;;;;;5089001;28;20391;-73
2022/12/20 14:06:19;;;;;;;;;;;10.10;99.90;;;;;;5093103;28;20271;-74
2022/12/20 14:08:46;;;;;;;;;;;10.10;99.90;;;;;;5090731;28;20075;-73
2022/12/20 14:11:14;;;;;;;;;;;10.10;99.90;;;;;;5091896;28;20476;-73
2022/12/20 14:13:41;;;;;;;;;;;10.10;99.90;;;;;;5087995;28;19955;-73
2022/12/20 14:16:10;;;;;;;;;;;10.10;99.90;;;;;;5092831;28;20014;-74
2022/12/20 14:18:37;;;;;;;;;;;10.10;99.90;;;;;;5086932;28;19969;-76
2022/12/20 14:21:05;;;;;;;;;;;10.00;99.90;;;;;;5090192;28;19958;-75
2022/12/20 14:23:36;;;;;;;;;;;10.00;99.90;;;;;;5091154;28;19931;-75
2022/12/20 14:26:03;;;;;;;;;;;10.00;99.90;;;;;;5092079;28;20025;-70
2022/12/20 14:28:30;;;;;;;;;;;10.00;99.90;;;;;;5088671;28;19927;-75
2022/12/20 14:30:58;;;;;;;;;;;10.00;99.90;;;;;;5088119;28;20335;-74
2022/12/20 14:33:27;;;;;;;;;;;10.00;99.90;;;;;;5083658;28;19932;-74
2022/12/20 14:35:54;;;;;;;;;;;10.00;99.90;;;;;;5091115;28;20065;-74
2022/12/20 14:38:22;;;;;;;;;;;10.00;99.90;;;;;;5086741;28;19936;-74
2022/12/20 14:40:50;;;;;;;;;;;10.00;99.90;;;;;;5089374;28;19927;-75